createdAt,value
2022-11-06T00:00:32.411Z,9.51
2022-11-06T00:03:01.082Z,9.39
2022-11-06T00:05:49.222Z,9.41
2022-11-06T00:08:28.553Z,9.53
2022-11-06T00:10:56.537Z,9.39
2022-11-06T00:13:24.456Z,9.35
2022-11-06T00:15:52.686Z,9.59
2022-11-06T00:18:21.104Z,9.46
2022-11-06T00:20:50.275Z,9.54
2022-11-06T00:23:18.284Z,9.27
2022-11-06T00:25:46.143Z,9.24
2022-11-06T00:28:14.352Z,9.27
2022-11-06T00:30:45.778Z,8.99
2022-11-06T00:33:13.607Z,9.05
2022-11-06T00:35:41.660Z,9.19
2022-11-06T00:38:11.147Z,9.07
2022-11-06T00:40:39.166Z,8.91
2022-11-06T00:43:07.032Z,8.68
2022-11-06T00:45:34.783Z,8.89
2022-11-06T00:48:02.549Z,8.94
2022-11-06T00:50:30.307Z,8.95
2022-11-06T00:52:58.060Z,8.86
2022-11-06T00:55:27.197Z,8.75
2022-11-06T00:57:55.167Z,8.88
2022-11-06T01:00:23.139Z,8.91
2022-11-06T01:02:51.128Z,8.77
2022-11-06T01:05:19.105Z,8.87
2022-11-06T01:07:48.170Z,8.73
2022-11-06T01:10:16.195Z,8.58
2022-11-06T01:12:45.278Z,8.51
2022-11-06T01:15:13.066Z,8.40
2022-11-06T01:17:40.920Z,8.45
2022-11-06T01:20:09.969Z,8.34
2022-11-06T01:22:37.830Z,8.20
2022-11-06T01:25:06.782Z,8.12
2022-11-06T01:27:34.607Z,8.07
2022-11-06T01:30:04.459Z,7.99
2022-11-06T01:32:32.497Z,7.94
2022-11-06T01:35:00.198Z,7.79
2022-11-06T01:37:28.050Z,7.72
2022-11-06T01:39:55.859Z,7.59
2022-11-06T01:42:23.627Z,7.60
2022-11-06T01:45:25.031Z,7.50
2022-11-06T01:47:53.008Z,7.42
2022-11-06T01:50:21.412Z,7.29
2022-11-06T01:52:51.036Z,7.36
2022-11-06T01:55:23.898Z,7.23
2022-11-06T01:57:52.455Z,7.19
2022-11-06T02:00:21.121Z,7.22
2022-11-06T02:02:51.715Z,7.14
2022-11-06T02:05:19.961Z,7.20
2022-11-06T02:07:48.095Z,7.23
2022-11-06T02:10:16.523Z,7.19
2022-11-06T02:12:53.216Z,7.31
2022-11-06T02:15:30.412Z,7.33
2022-11-06T02:18:16.273Z,7.34
2022-11-06T02:20:54.801Z,7.45
2022-11-06T02:23:37.907Z,7.65
2022-11-06T02:26:21.460Z,7.76
2022-11-06T02:28:55.115Z,7.84
2022-11-06T02:31:29.193Z,7.82
2022-11-06T02:34:00.588Z,7.73
2022-11-06T02:36:34.198Z,7.55
2022-11-06T02:39:07.713Z,7.52
2022-11-06T02:41:40.855Z,7.50
2022-11-06T02:44:15.391Z,7.38
2022-11-06T02:46:47.761Z,7.34
2022-11-06T02:49:20.393Z,7.08
2022-11-06T02:51:55.023Z,7.19
2022-11-06T02:54:25.428Z,7.21
2022-11-06T02:56:56.765Z,7.17
2022-11-06T02:59:31.148Z,7.08
2022-11-06T03:02:02.836Z,6.97
2022-11-06T03:04:35.124Z,7.01
2022-11-06T03:07:07.040Z,6.96
2022-11-06T03:09:35.486Z,6.98
2022-11-06T03:12:10.963Z,6.98
2022-11-06T03:14:48.663Z,6.98
2022-11-06T03:17:22.919Z,6.89
2022-11-06T03:19:59.177Z,6.70
2022-11-06T03:22:34.012Z,6.67
2022-11-06T03:25:12.785Z,6.38
2022-11-06T03:27:51.026Z,6.76
2022-11-06T03:30:21.953Z,6.71
2022-11-06T03:32:55.451Z,6.99
2022-11-06T03:35:28.082Z,6.92
2022-11-06T03:38:02.892Z,6.98
2022-11-06T03:40:36.298Z,6.92
2022-11-06T03:43:10.256Z,6.69
2022-11-06T03:45:44.159Z,6.45
2022-11-06T03:48:20.219Z,6.49
2022-11-06T03:50:55.780Z,6.42
2022-11-06T03:53:28.978Z,6.38
2022-11-06T03:56:06.639Z,6.49
2022-11-06T03:58:41.247Z,6.21
2022-11-06T04:01:16.804Z,6.13
2022-11-06T04:03:50.834Z,6.15
2022-11-06T04:06:35.979Z,6.40
2022-11-06T04:09:41.977Z,6.34
2022-11-06T04:12:30.978Z,6.16
2022-11-06T04:15:04.414Z,6.50
2022-11-06T04:17:35.426Z,6.17
2022-11-06T04:20:06.944Z,6.32
2022-11-06T04:22:46.001Z,6.15
2022-11-06T04:25:51.617Z,5.87
2022-11-06T04:28:31.784Z,5.64
2022-11-06T04:31:09.932Z,5.76
2022-11-06T04:33:52.361Z,5.45
2022-11-06T04:36:32.142Z,5.78
2022-11-06T04:39:07.720Z,5.74
2022-11-06T04:41:41.691Z,5.56
2022-11-06T04:44:16.751Z,5.35
2022-11-06T04:46:48.969Z,5.25
2022-11-06T04:49:24.159Z,5.56
2022-11-06T04:51:55.867Z,5.45
2022-11-06T04:54:27.788Z,5.39
2022-11-06T04:57:00.700Z,5.32
2022-11-06T04:59:39.110Z,5.48
2022-11-06T05:02:09.350Z,5.86
2022-11-06T05:04:42.381Z,5.71
2022-11-06T05:07:14.840Z,5.89
2022-11-06T05:09:45.783Z,5.61
2022-11-06T05:12:17.161Z,5.50
2022-11-06T05:14:45.992Z,5.69
2022-11-06T05:17:15.152Z,5.40
2022-11-06T05:19:45.496Z,5.74
2022-11-06T05:22:31.148Z,5.37
2022-11-06T05:24:58.937Z,5.54
2022-11-06T05:27:26.899Z,5.69
2022-11-06T05:29:54.676Z,5.61
2022-11-06T05:32:22.569Z,5.70
2022-11-06T05:34:51.826Z,5.62
2022-11-06T05:37:19.654Z,5.42
2022-11-06T05:39:47.819Z,5.43
2022-11-06T05:42:15.701Z,5.40
2022-11-06T05:44:43.527Z,5.28
2022-11-06T05:47:11.529Z,5.32
2022-11-06T05:49:39.276Z,5.18
2022-11-06T05:52:08.646Z,5.35
2022-11-06T05:54:36.506Z,5.16
2022-11-06T05:57:04.713Z,5.16
2022-11-06T05:59:32.576Z,5.21
2022-11-06T06:02:00.499Z,5.10
2022-11-06T06:04:28.496Z,5.13
2022-11-06T06:06:56.286Z,5.21
2022-11-06T06:09:25.461Z,5.16
2022-11-06T06:11:53.979Z,5.10
2022-11-06T06:14:22.360Z,5.02
2022-11-06T06:16:53.877Z,5.24
2022-11-06T06:24:35.820Z,5.00
2022-11-06T06:27:05.299Z,5.00
2022-11-06T06:29:37.339Z,4.81
2022-11-06T06:32:07.044Z,4.75
2022-11-06T06:34:36.211Z,4.54
2022-11-06T06:37:05.178Z,4.65
2022-11-06T06:39:35.180Z,4.68
2022-11-06T06:43:05.156Z,5.04
2022-11-06T06:45:37.390Z,4.90
2022-11-06T06:48:09.249Z,4.96
2022-11-06T06:50:38.607Z,4.94
2022-11-06T06:53:08.577Z,4.93
2022-11-06T06:55:37.057Z,4.99
2022-11-06T06:58:11.228Z,5.13
2022-11-06T07:00:44.655Z,5.11
2022-11-06T07:03:12.731Z,5.12
2022-11-06T07:05:41.887Z,5.17
2022-11-06T07:08:14.201Z,4.84
2022-11-06T07:10:43.644Z,5.19
2022-11-06T07:13:13.317Z,5.28
2022-11-06T07:15:42.081Z,5.65
2022-11-06T07:22:41.576Z,5.42
2022-11-06T07:25:11.250Z,5.45
2022-11-06T07:27:39.425Z,5.33
2022-11-06T07:30:08.255Z,5.90
2022-11-06T07:32:36.108Z,5.89
2022-11-06T07:35:04.250Z,6.19
2022-11-06T07:37:32.136Z,6.40
2022-11-06T07:40:01.740Z,6.46
2022-11-06T07:42:30.001Z,6.54
2022-11-06T07:44:58.097Z,6.61
2022-11-06T07:47:27.636Z,6.52
2022-11-06T07:49:56.090Z,6.57
2022-11-06T07:52:24.022Z,6.69
2022-11-06T07:54:52.132Z,6.56
2022-11-06T07:57:21.500Z,6.63
2022-11-06T07:59:49.424Z,6.64
2022-11-06T08:02:17.781Z,6.64
2022-11-06T08:04:45.856Z,6.96
2022-11-06T08:07:18.144Z,6.87
2022-11-06T08:09:55.363Z,7.30
2022-11-06T08:12:24.726Z,7.37
2022-11-06T08:14:52.791Z,6.99
2022-11-06T08:17:21.015Z,7.11
2022-11-06T08:19:48.864Z,7.24
2022-11-06T08:22:16.718Z,7.32
2022-11-06T08:24:44.799Z,7.47
2022-11-06T08:27:12.633Z,7.38
2022-11-06T08:29:41.995Z,7.58
2022-11-06T08:32:13.246Z,7.54
2022-11-06T08:34:42.325Z,7.73
2022-11-06T08:37:11.524Z,7.74
2022-11-06T08:39:39.697Z,7.91
2022-11-06T08:42:08.193Z,8.17
2022-11-06T08:44:36.088Z,8.14
2022-11-06T08:47:06.336Z,7.94
2022-11-06T08:49:35.526Z,7.91
2022-11-06T09:21:58.577Z,8.96
2022-11-06T09:24:49.733Z,9.04
2022-11-06T09:27:17.160Z,9.22
2022-11-06T09:29:45.498Z,9.12
2022-11-06T09:32:13.586Z,9.29
2022-11-06T09:34:41.817Z,9.27
2022-11-06T09:37:12.043Z,9.22
2022-11-06T09:39:40.256Z,9.16
2022-11-06T09:42:25.868Z,9.47
2022-11-06T09:45:03.850Z,9.52
2022-11-06T09:47:37.482Z,9.61
2022-11-06T09:50:13.974Z,9.32
2022-11-06T09:52:49.465Z,9.82
2022-11-06T09:55:22.924Z,9.95
2022-11-06T09:57:56.036Z,10.28
2022-11-06T10:00:25.073Z,10.30
2022-11-06T10:02:55.895Z,10.40
2022-11-06T10:05:27.507Z,10.09
2022-11-06T10:08:00.088Z,10.26
2022-11-06T10:10:35.623Z,10.21
2022-11-06T10:13:17.909Z,10.50
2022-11-06T10:15:52.616Z,10.66
2022-11-06T10:18:29.560Z,10.82
2022-11-06T10:21:07.350Z,10.89
2022-11-06T10:23:45.197Z,11.05
2022-11-06T10:26:16.890Z,10.91
2022-11-06T10:29:03.270Z,10.93
2022-11-06T10:31:38.999Z,10.63
2022-11-06T10:34:12.160Z,10.87
2022-11-06T10:36:49.947Z,10.90
2022-11-06T10:39:24.184Z,11.22
2022-11-06T10:41:58.315Z,11.44
2022-11-06T10:44:32.851Z,11.52
2022-11-06T10:47:07.619Z,11.48
2022-11-06T10:49:41.294Z,11.61
2022-11-06T10:52:39.009Z,11.84
2022-11-06T10:55:27.748Z,11.83
2022-11-06T10:58:00.464Z,12.00
2022-11-06T11:00:28.425Z,12.07
2022-11-06T11:02:58.602Z,12.06
2022-11-06T11:05:28.353Z,12.21
2022-11-06T11:07:59.491Z,12.17
2022-11-06T11:10:34.883Z,12.35
2022-11-06T11:13:08.450Z,12.31
2022-11-06T11:15:45.455Z,12.17
2022-11-06T11:18:19.781Z,12.30
2022-11-06T11:20:49.560Z,12.57
2022-11-06T11:23:23.198Z,12.50
2022-11-06T11:25:57.751Z,12.63
2022-11-06T11:28:31.921Z,12.57
2022-11-06T11:31:09.618Z,12.41
2022-11-06T11:33:39.603Z,12.67
2022-11-06T11:36:10.729Z,12.87
2022-11-06T11:38:41.151Z,12.85
2022-11-06T11:41:14.666Z,12.77
2022-11-06T11:43:43.289Z,13.11
2022-11-06T11:46:21.199Z,13.38
2022-11-06T11:48:51.255Z,13.53
2022-11-06T11:51:29.240Z,13.63
2022-11-06T11:53:59.768Z,13.52
2022-11-06T11:56:57.770Z,13.42
2022-11-06T11:59:21.481Z,13.54
2022-11-06T12:01:50.247Z,13.73
2022-11-06T12:04:23.853Z,14.03
2022-11-06T12:06:55.635Z,13.67
2022-11-06T12:09:26.795Z,13.80
2022-11-06T12:11:59.241Z,13.76
2022-11-06T12:14:30.539Z,13.73
2022-11-06T12:17:03.558Z,13.86
2022-11-06T12:19:35.696Z,13.47
2022-11-06T12:22:09.384Z,13.92
2022-11-06T12:24:46.210Z,14.20
2022-11-06T12:27:23.016Z,14.19
2022-11-06T12:29:58.045Z,14.58
2022-11-06T12:32:39.732Z,14.18
2022-11-06T12:35:18.620Z,14.14
2022-11-06T12:37:56.367Z,14.46
2022-11-06T12:40:29.831Z,14.07
2022-11-06T12:43:35.561Z,14.11
2022-11-06T12:46:37.454Z,13.97
2022-11-06T12:49:28.566Z,14.07
2022-11-06T12:52:08.184Z,14.23
2022-11-06T12:54:50.207Z,13.84
2022-11-06T12:57:54.348Z,14.40
2022-11-06T13:00:31.133Z,13.91
2022-11-06T13:03:31.389Z,14.10
2022-11-06T13:06:12.035Z,13.90
2022-11-06T13:08:50.579Z,13.81
2022-11-06T13:11:34.135Z,14.30
2022-11-06T13:14:30.748Z,14.00
2022-11-06T13:17:05.599Z,14.02
2022-11-06T13:19:44.514Z,14.33
2022-11-06T13:22:24.915Z,14.43
2022-11-06T13:25:08.434Z,14.45
2022-11-06T13:27:41.031Z,14.46
2022-11-06T13:30:16.512Z,14.56
2022-11-06T13:32:52.570Z,14.60
2022-11-06T13:35:24.261Z,14.54
2022-11-06T13:37:54.446Z,14.71
2022-11-06T13:40:32.712Z,14.97
2022-11-06T13:43:07.814Z,15.05
2022-11-06T13:45:47.153Z,15.03
2022-11-06T13:48:37.399Z,14.73
2022-11-06T13:51:18.760Z,15.02
2022-11-06T13:53:58.565Z,14.82
2022-11-06T13:56:48.962Z,14.49
2022-11-06T13:59:52.768Z,14.10
2022-11-06T14:02:40.031Z,14.08
2022-11-06T14:05:47.322Z,13.83
2022-11-06T14:08:24.587Z,14.09
2022-11-06T14:11:00.510Z,13.96
2022-11-06T14:13:34.238Z,14.03
2022-11-06T14:16:26.588Z,14.11
2022-11-06T14:18:57.535Z,14.18
2022-11-06T14:21:43.975Z,13.94
2022-11-06T14:24:41.851Z,14.02
2022-11-06T14:27:14.413Z,13.66
2022-11-06T14:30:01.746Z,13.95
2022-11-06T14:32:57.201Z,13.90
2022-11-06T14:35:52.960Z,14.00
2022-11-06T14:38:38.488Z,13.75
2022-11-06T14:41:49.761Z,13.84
2022-11-06T14:44:35.300Z,13.50
2022-11-06T14:47:07.152Z,13.53
2022-11-06T14:49:41.787Z,13.78
2022-11-06T14:52:14.383Z,13.62
2022-11-06T14:54:59.440Z,13.77
2022-11-06T14:57:50.184Z,13.58
2022-11-06T15:00:39.298Z,13.38
2022-11-06T15:03:20.087Z,13.49
2022-11-06T15:05:52.542Z,13.56
2022-11-06T15:08:58.535Z,13.53
2022-11-06T15:11:55.997Z,13.44
2022-11-06T15:14:56.331Z,13.42
2022-11-06T15:17:28.300Z,13.44
2022-11-06T15:20:07.821Z,13.24
2022-11-06T15:22:40.942Z,12.92
2022-11-06T15:25:21.414Z,12.99
2022-11-06T15:27:57.124Z,12.81
2022-11-06T15:30:25.831Z,13.14
2022-11-06T15:32:55.871Z,13.07
2022-11-06T15:35:25.545Z,12.98
2022-11-06T15:37:58.262Z,12.90
2022-11-06T15:40:30.854Z,12.96
2022-11-06T15:43:02.931Z,13.00
2022-11-06T15:45:31.204Z,12.82
2022-11-06T15:48:02.965Z,12.87
2022-11-06T15:50:33.101Z,12.77
2022-11-06T15:53:26.835Z,12.84
2022-11-06T15:55:58.756Z,12.95
2022-11-06T15:58:32.673Z,12.93
2022-11-06T16:01:02.280Z,12.84
2022-11-06T16:03:34.989Z,12.67
2022-11-06T16:06:04.542Z,12.80
2022-11-06T16:08:33.455Z,12.93
2022-11-06T16:11:08.066Z,12.85
2022-11-06T16:13:38.832Z,12.77
2022-11-06T16:16:07.321Z,12.67
2022-11-06T16:18:42.266Z,12.50
2022-11-06T16:21:13.102Z,12.46
2022-11-06T16:23:46.458Z,12.48
2022-11-06T16:26:17.534Z,12.44
2022-11-06T16:28:47.994Z,12.37
2022-11-06T16:31:18.832Z,12.47
2022-11-06T16:33:56.590Z,12.26
2022-11-06T16:36:25.058Z,12.34
2022-11-06T16:38:53.871Z,12.28
2022-11-06T16:41:40.663Z,12.44
2022-11-06T16:44:24.899Z,12.43
2022-11-06T16:47:15.651Z,12.19
2022-11-06T16:49:52.613Z,12.14
2022-11-06T16:52:25.787Z,12.15
2022-11-06T16:54:56.063Z,12.28
2022-11-06T16:57:26.466Z,12.26
2022-11-06T16:59:57.440Z,12.19
2022-11-06T17:02:29.008Z,12.27
2022-11-06T17:05:16.690Z,12.07
2022-11-06T17:07:46.195Z,12.16
2022-11-06T17:10:40.970Z,12.24
2022-11-06T17:13:16.271Z,12.01
2022-11-06T17:15:46.513Z,12.24
2022-11-06T17:18:20.683Z,12.13
2022-11-06T17:20:54.000Z,12.18
2022-11-06T17:23:23.299Z,12.11
2022-11-06T17:25:54.083Z,12.18
2022-11-06T17:28:22.809Z,12.18
2022-11-06T17:30:51.345Z,11.97
2022-11-06T17:33:19.267Z,12.11
2022-11-06T17:35:49.125Z,12.11
2022-11-06T17:38:18.963Z,11.81
2022-11-06T17:40:47.805Z,12.07
2022-11-06T17:43:16.265Z,12.12
2022-11-06T17:45:47.889Z,12.12
2022-11-06T17:48:19.156Z,11.99
2022-11-06T17:51:04.384Z,11.86
2022-11-06T17:53:33.657Z,11.64
2022-11-06T17:56:05.121Z,11.83
2022-11-06T17:58:33.957Z,11.64
2022-11-06T18:01:07.260Z,11.67
2022-11-06T18:03:36.915Z,11.53
2022-11-06T18:06:05.431Z,11.46
2022-11-06T18:08:34.674Z,11.37
2022-11-06T18:11:02.554Z,11.18
2022-11-06T18:13:31.146Z,11.42
2022-11-06T18:15:59.323Z,11.31
2022-11-06T18:18:27.574Z,11.48
2022-11-06T18:20:55.889Z,11.40
2022-11-06T18:23:24.396Z,11.37
2022-11-06T18:25:58.038Z,11.47
2022-11-06T18:28:27.112Z,11.35
2022-11-06T18:30:55.189Z,11.27
2022-11-06T18:33:23.166Z,11.42
2022-11-06T18:35:52.121Z,11.21
2022-11-06T18:38:20.514Z,11.37
2022-11-06T18:40:51.624Z,11.43
2022-11-06T18:43:21.511Z,11.35
2022-11-06T18:45:49.655Z,11.07
2022-11-06T18:48:21.279Z,11.13
2022-11-06T18:50:49.943Z,11.15
2022-11-06T18:53:17.957Z,11.01
2022-11-06T18:55:46.921Z,11.19
2022-11-06T18:58:15.359Z,11.26
2022-11-06T19:00:45.238Z,10.88
2022-11-06T19:03:13.878Z,10.95
2022-11-06T19:05:47.507Z,10.88
2022-11-06T19:08:16.232Z,11.06
2022-11-06T19:10:44.543Z,11.01
2022-11-06T19:13:13.129Z,10.78
2022-11-06T19:15:41.094Z,11.12
2022-11-06T19:18:10.388Z,11.08
2022-11-06T19:20:40.330Z,11.08
2022-11-06T19:23:08.566Z,11.28
2022-11-06T19:25:36.582Z,11.18
2022-11-06T19:28:04.673Z,11.06
2022-11-06T19:30:32.502Z,11.16
2022-11-06T19:33:00.362Z,11.40
2022-11-06T19:35:30.969Z,11.26
2022-11-06T19:37:58.917Z,11.15
2022-11-06T19:40:27.632Z,11.24
2022-11-06T19:42:55.590Z,11.62
2022-11-06T19:45:24.968Z,11.26
2022-11-06T19:47:53.006Z,11.41
2022-11-06T19:50:39.146Z,11.31
2022-11-06T19:53:10.832Z,11.29
2022-11-06T19:55:40.039Z,11.21
2022-11-06T19:58:07.868Z,11.40
2022-11-06T20:00:35.871Z,11.32
2022-11-06T20:03:03.854Z,11.23
2022-11-06T20:05:31.956Z,11.32
2022-11-06T20:07:59.874Z,11.22
2022-11-06T20:10:29.147Z,11.45
2022-11-06T20:12:57.279Z,11.12
2022-11-06T20:15:45.706Z,11.35
2022-11-06T20:18:13.629Z,11.40
2022-11-06T20:20:41.531Z,11.34
2022-11-06T20:23:09.395Z,11.35
2022-11-06T20:25:38.858Z,11.28
2022-11-06T20:28:06.763Z,11.14
2022-11-06T20:30:34.600Z,11.04
2022-11-06T20:33:02.479Z,10.88
2022-11-06T20:35:30.884Z,10.94
2022-11-06T20:37:59.409Z,10.94
2022-11-06T20:40:31.821Z,10.53
2022-11-06T20:43:04.183Z,11.14
2022-11-06T20:45:36.977Z,11.11
2022-11-06T20:48:05.377Z,11.03
2022-11-06T20:50:33.766Z,10.93
2022-11-06T20:53:01.808Z,10.90
2022-11-06T20:55:29.797Z,10.99
2022-11-06T20:57:57.713Z,10.96
2022-11-06T21:00:27.238Z,11.11
2022-11-06T21:03:00.516Z,11.20
2022-11-06T21:05:29.590Z,11.22
2022-11-06T21:07:58.311Z,11.17
2022-11-06T21:10:26.175Z,11.11
2022-11-06T21:12:54.107Z,11.34
2022-11-06T21:15:22.119Z,11.32
2022-11-06T21:17:51.553Z,11.40
2022-11-06T21:20:22.988Z,11.39
2022-11-06T21:22:51.438Z,11.24
2022-11-06T21:25:20.363Z,11.12
2022-11-06T21:27:48.522Z,11.38
2022-11-06T21:30:16.443Z,11.14
2022-11-06T21:32:44.392Z,11.39
2022-11-06T21:35:13.684Z,11.11
2022-11-06T21:37:41.543Z,11.36
2022-11-06T21:40:17.114Z,11.23
2022-11-06T21:42:45.434Z,11.03
2022-11-06T21:45:14.988Z,11.13
2022-11-06T21:47:43.102Z,11.49
2022-11-06T21:50:11.701Z,11.32
2022-11-06T21:52:58.220Z,11.54
2022-11-06T21:55:43.656Z,11.45
2022-11-06T21:58:11.845Z,11.23
2022-11-06T22:00:40.499Z,11.27
2022-11-06T22:03:08.328Z,11.45
2022-11-06T22:05:36.300Z,11.42
2022-11-06T22:08:06.044Z,11.46
2022-11-06T22:10:34.225Z,11.49
2022-11-06T22:13:02.248Z,11.36
2022-11-06T22:15:30.240Z,11.37
2022-11-06T22:17:58.119Z,11.21
2022-11-06T22:20:26.056Z,11.18
2022-11-06T22:22:54.110Z,11.32
2022-11-06T22:25:24.259Z,11.30
2022-11-06T22:27:52.301Z,11.12
2022-11-06T22:30:20.245Z,11.44
2022-11-06T22:32:48.171Z,11.38
2022-11-06T22:35:16.108Z,11.22
2022-11-06T22:37:44.072Z,11.23
2022-11-06T22:40:12.772Z,11.47
2022-11-06T22:42:45.816Z,11.55
2022-11-06T22:45:17.565Z,11.24
2022-11-06T22:47:46.644Z,11.33
2022-11-06T22:50:14.540Z,11.48
2022-11-06T22:52:43.139Z,11.39
2022-11-06T22:55:11.185Z,11.48
2022-11-06T22:57:39.216Z,11.34
2022-11-06T23:00:09.994Z,11.50
2022-11-06T23:02:39.966Z,11.32
2022-11-06T23:05:08.694Z,11.39
2022-11-06T23:07:36.685Z,11.62
2022-11-06T23:10:04.855Z,11.25
2022-11-06T23:12:32.839Z,11.20
2022-11-06T23:15:00.896Z,11.40
2022-11-06T23:17:30.361Z,11.42
2022-11-06T23:19:58.418Z,11.46
2022-11-06T23:22:38.624Z,11.32
2022-11-06T23:25:08.240Z,11.43
2022-11-06T23:27:37.296Z,11.41
2022-11-06T23:30:06.585Z,11.27
2022-11-06T23:32:37.729Z,11.44
2022-11-06T23:35:09.178Z,11.43
2022-11-06T23:37:41.459Z,11.35
2022-11-06T23:40:11.782Z,11.30
2022-11-06T23:42:39.775Z,11.34
2022-11-06T23:45:26.024Z,11.56
2022-11-06T23:47:55.360Z,11.31
2022-11-06T23:50:23.396Z,11.26
2022-11-06T23:52:51.260Z,11.37
2022-11-06T23:55:19.167Z,11.41
2022-11-06T23:57:47.006Z,11.28
